createdAt,value
2018-06-02T00:02:29.013Z,71.40
2018-06-02T00:05:03.601Z,70.60
2018-06-02T00:07:37.881Z,68.40
2018-06-02T00:10:12.272Z,69.40
2018-06-02T00:12:46.805Z,69.40
2018-06-02T00:15:21.302Z,69.10
2018-06-02T00:17:55.774Z,69.00
2018-06-02T00:20:30.069Z,70.10
2018-06-02T00:23:04.524Z,69.20
2018-06-02T00:25:39.108Z,69.70
2018-06-02T00:28:13.531Z,69.70
2018-06-02T00:30:48.053Z,69.70
2018-06-02T00:33:22.475Z,68.10
2018-06-02T00:35:56.872Z,67.30
2018-06-02T00:38:31.412Z,69.70
2018-06-02T00:41:05.680Z,70.60
2018-06-02T00:43:40.152Z,69.50
2018-06-02T00:46:14.532Z,69.30
2018-06-02T00:48:48.937Z,70.90
2018-06-02T00:51:23.188Z,70.50
2018-06-02T00:53:57.613Z,70.70
2018-06-02T00:56:32.640Z,71.80
2018-06-02T00:59:07.112Z,71.80
2018-06-02T01:01:41.583Z,70.30
2018-06-02T01:04:16.028Z,71.20
2018-06-02T01:06:50.292Z,71.10
2018-06-02T01:09:24.541Z,68.90
2018-06-02T01:11:59.700Z,72.10
2018-06-02T01:14:34.332Z,72.00
2018-06-02T01:17:08.612Z,71.40
2018-06-02T01:19:43.780Z,72.10
2018-06-02T01:22:18.216Z,72.10
2018-06-02T01:24:53.554Z,69.30
2018-06-02T01:27:28.660Z,71.60
2018-06-02T01:30:03.208Z,71.60
2018-06-02T01:32:37.500Z,71.80
2018-06-02T01:35:12.651Z,72.20
2018-06-02T01:37:47.189Z,72.20
2018-06-02T01:40:21.568Z,69.90
2018-06-02T01:42:55.836Z,68.00
2018-06-02T01:45:30.240Z,71.00
2018-06-02T01:48:04.755Z,68.40
2018-06-02T01:50:39.029Z,70.80
2018-06-02T01:53:13.405Z,69.50
2018-06-02T01:55:48.029Z,68.40
2018-06-02T01:58:22.404Z,72.00
2018-06-02T02:00:56.783Z,70.60
2018-06-02T02:03:31.393Z,70.70
2018-06-02T02:06:06.420Z,68.00
2018-06-02T02:08:40.864Z,68.00
2018-06-02T02:11:15.324Z,70.70
2018-06-02T02:13:50.386Z,71.20
2018-06-02T02:16:24.696Z,71.20
2018-06-02T02:18:59.216Z,66.40
2018-06-02T02:21:33.755Z,70.90
2018-06-02T02:24:09.706Z,68.60
2018-06-02T02:26:44.219Z,68.60
2018-06-02T02:29:18.672Z,70.20
2018-06-02T02:31:52.940Z,70.80
2018-06-02T02:34:27.624Z,68.80
2018-06-02T02:37:02.156Z,70.30
2018-06-02T02:39:36.565Z,70.50
2018-06-02T02:42:11.181Z,70.20
2018-06-02T02:44:45.608Z,70.60
2018-06-02T02:47:20.145Z,70.00
2018-06-02T02:49:55.365Z,71.50
2018-06-02T02:52:29.776Z,71.40
2018-06-02T02:55:04.137Z,70.20
2018-06-02T02:57:38.732Z,69.20
2018-06-02T03:00:13.261Z,71.00
2018-06-02T03:02:47.568Z,69.00
2018-06-02T03:05:21.988Z,70.30
2018-06-02T03:07:56.420Z,66.80
2018-06-02T03:10:30.936Z,68.90
2018-06-02T03:13:05.460Z,69.30
2018-06-02T03:15:39.880Z,67.90
2018-06-02T03:18:14.171Z,70.20
2018-06-02T03:20:48.624Z,67.90
2018-06-02T03:23:23.044Z,70.30
2018-06-02T03:25:57.456Z,67.70
2018-06-02T03:28:31.973Z,68.10
2018-06-02T03:31:06.508Z,67.80
2018-06-02T03:33:41.040Z,65.80
2018-06-02T03:36:15.430Z,64.20
2018-06-02T03:38:49.749Z,64.40
2018-06-02T03:41:24.101Z,63.00
2018-06-02T03:43:58.508Z,63.50
2018-06-02T03:46:33.032Z,63.60
2018-06-02T03:49:08.169Z,65.10
2018-06-02T03:51:42.488Z,65.10
2018-06-02T03:54:17.724Z,66.60
2018-06-02T03:56:52.252Z,66.40
2018-06-02T03:59:27.492Z,65.10
2018-06-02T04:02:01.912Z,65.00
2018-06-02T04:04:36.328Z,67.60
2018-06-02T04:07:10.753Z,69.50
2018-06-02T04:09:46.197Z,76.00
2018-06-02T04:12:20.517Z,77.00
2018-06-02T04:14:55.140Z,76.40
2018-06-02T04:17:30.280Z,74.20
2018-06-02T04:20:04.740Z,74.20
2018-06-02T04:22:39.208Z,78.80
2018-06-02T04:25:13.636Z,82.50
2018-06-02T04:27:48.181Z,83.10
2018-06-02T04:30:22.792Z,85.00
2018-06-02T04:32:57.237Z,85.80
2018-06-02T04:35:31.836Z,84.20
2018-06-02T04:38:06.370Z,87.50
2018-06-02T04:40:40.784Z,86.80
2018-06-02T04:43:15.275Z,85.70
2018-06-02T04:45:49.841Z,88.70
2018-06-02T04:48:24.217Z,88.10
2018-06-02T04:50:58.672Z,88.90
2018-06-02T04:53:33.799Z,88.40
2018-06-02T04:56:09.057Z,85.30
2018-06-02T04:58:43.540Z,85.30
2018-06-02T05:01:17.900Z,85.40
2018-06-02T05:03:52.364Z,88.20
2018-06-02T05:06:26.882Z,88.20
2018-06-02T05:09:02.276Z,88.30
2018-06-02T05:11:36.597Z,88.10
2018-06-02T05:14:11.225Z,88.10
2018-06-02T05:16:45.543Z,86.50
2018-06-02T05:19:19.964Z,86.30
2018-06-02T05:21:54.477Z,85.80
2018-06-02T05:24:29.720Z,88.70
2018-06-02T05:27:04.060Z,88.70
2018-06-02T05:29:39.197Z,90.20
2018-06-02T05:32:13.467Z,90.20
2018-06-02T05:34:47.917Z,90.10
2018-06-02T05:37:22.341Z,90.10
2018-06-02T05:39:56.760Z,89.50
2018-06-02T05:42:31.245Z,89.50
2018-06-02T05:45:05.721Z,91.10
2018-06-02T05:47:40.228Z,91.20
2018-06-02T05:50:14.605Z,90.10
2018-06-02T05:52:49.680Z,88.30
2018-06-02T05:55:24.902Z,90.30
2018-06-02T05:57:59.436Z,90.30
2018-06-02T06:00:33.736Z,88.80
2018-06-02T06:03:08.936Z,88.30
2018-06-02T06:05:43.302Z,88.30
2018-06-02T06:08:17.622Z,90.30
2018-06-02T06:10:52.160Z,90.10
2018-06-02T06:13:26.684Z,89.20
2018-06-02T06:16:01.204Z,90.00
2018-06-02T06:18:35.636Z,88.70
2018-06-02T06:21:10.248Z,90.00
2018-06-02T06:23:44.522Z,90.40
2018-06-02T06:26:18.992Z,90.30
2018-06-02T06:28:53.428Z,90.10
2018-06-02T06:31:27.913Z,88.20
2018-06-02T06:34:02.556Z,90.10
2018-06-02T06:36:36.880Z,90.90
2018-06-02T06:39:11.418Z,88.30
2018-06-02T06:41:45.894Z,89.20
2018-06-02T06:44:20.332Z,90.20
2018-06-02T06:46:55.353Z,89.20
2018-06-02T06:49:29.809Z,89.10
2018-06-02T06:52:04.192Z,88.70
2018-06-02T06:54:39.219Z,88.50
2018-06-02T06:57:13.680Z,87.70
2018-06-02T06:59:48.912Z,86.80
2018-06-02T07:02:23.219Z,85.90
2018-06-02T07:04:57.731Z,88.40
2018-06-02T07:07:32.173Z,89.70
2018-06-02T07:10:07.321Z,90.20
2018-06-02T07:12:41.817Z,90.20
2018-06-02T07:15:16.249Z,89.40
2018-06-02T07:17:51.516Z,89.50
2018-06-02T07:20:26.844Z,90.00
2018-06-02T07:23:01.268Z,89.80
2018-06-02T07:25:35.889Z,90.60
2018-06-02T07:28:10.176Z,90.80
2018-06-02T07:30:44.660Z,90.00
2018-06-02T07:33:19.856Z,89.00
2018-06-02T07:35:55.824Z,87.80
2018-06-02T07:38:30.111Z,87.80
2018-06-02T07:41:04.564Z,86.00
2018-06-02T07:43:39.889Z,88.00
2018-06-02T07:46:14.328Z,88.00
2018-06-02T07:48:48.770Z,87.90
2018-06-02T07:51:23.164Z,88.60
2018-06-02T07:53:57.704Z,86.40
2018-06-02T07:56:32.216Z,85.90
2018-06-02T07:59:06.636Z,85.70
2018-06-02T08:01:41.052Z,85.20
2018-06-02T08:04:15.359Z,87.20
2018-06-02T08:06:49.801Z,88.40
2018-06-02T08:09:24.091Z,90.10
2018-06-02T08:11:59.221Z,87.70
2018-06-02T08:14:33.776Z,87.30
2018-06-02T08:17:08.171Z,86.40
2018-06-02T08:19:43.432Z,84.40
2018-06-02T08:22:17.856Z,84.30
2018-06-02T08:24:52.238Z,86.60
2018-06-02T08:27:26.548Z,84.90
2018-06-02T08:30:00.997Z,83.70
2018-06-02T08:32:35.538Z,83.20
2018-06-02T08:35:09.977Z,82.40
2018-06-02T08:37:44.362Z,84.00
2018-06-02T08:40:18.905Z,85.20
2018-06-02T08:42:53.320Z,83.70
2018-06-02T08:45:27.952Z,84.00
2018-06-02T08:48:04.100Z,83.10
2018-06-02T08:50:38.428Z,83.00
2018-06-02T08:53:12.852Z,81.70
2018-06-02T08:55:47.471Z,82.10
2018-06-02T08:58:22.008Z,84.50
2018-06-02T09:00:56.425Z,82.80
2018-06-02T09:03:30.676Z,79.30
2018-06-02T09:06:05.981Z,80.20
2018-06-02T09:08:40.276Z,80.10
2018-06-02T09:11:14.920Z,79.30
2018-06-02T09:13:49.756Z,78.10
2018-06-02T09:16:24.144Z,79.70
2018-06-02T09:18:58.453Z,80.40
2018-06-02T09:21:32.912Z,78.00
2018-06-02T09:24:08.049Z,75.90
2018-06-02T09:26:42.449Z,75.80
2018-06-02T09:29:16.791Z,76.20
2018-06-02T09:31:51.200Z,77.40
2018-06-02T09:34:25.719Z,78.20
2018-06-02T09:37:00.340Z,77.10
2018-06-02T09:39:34.675Z,76.30
2018-06-02T09:42:09.207Z,75.50
2018-06-02T09:44:43.508Z,73.20
2018-06-02T09:47:18.152Z,73.80
2018-06-02T09:49:52.668Z,73.00
2018-06-02T09:52:26.952Z,69.20
2018-06-02T09:55:01.387Z,72.20
2018-06-02T09:57:35.798Z,71.60
2018-06-02T10:00:10.230Z,72.60
2018-06-02T10:02:44.612Z,76.50
2018-06-02T10:05:19.000Z,74.90
2018-06-02T10:07:53.712Z,74.80
2018-06-02T10:10:29.715Z,73.90
2018-06-02T10:13:04.052Z,73.90
2018-06-02T10:15:38.521Z,74.70
2018-06-02T10:18:12.845Z,75.90
2018-06-02T10:20:48.061Z,75.70
2018-06-02T10:23:23.280Z,73.20
2018-06-02T10:25:58.341Z,72.90
2018-06-02T10:28:32.771Z,72.90
2018-06-02T10:31:07.289Z,71.80
2018-06-02T10:33:41.656Z,70.40
2018-06-02T10:36:16.099Z,69.90
2018-06-02T10:38:50.645Z,68.80
2018-06-02T10:41:25.050Z,69.80
2018-06-02T10:44:00.315Z,69.30
2018-06-02T10:46:34.600Z,69.30
2018-06-02T10:49:08.852Z,69.40
2018-06-02T10:51:43.372Z,68.40
2018-06-02T10:54:17.784Z,70.40
2018-06-02T10:56:52.213Z,69.30
2018-06-02T10:59:26.506Z,72.20
2018-06-02T11:02:00.844Z,69.80
2018-06-02T11:04:35.166Z,71.70
2018-06-02T11:07:10.188Z,68.60
2018-06-02T11:09:44.621Z,68.50
2018-06-02T11:12:18.885Z,68.70
2018-06-02T11:14:53.338Z,69.40
2018-06-02T11:17:27.593Z,69.50
2018-06-02T11:20:02.108Z,70.30
2018-06-02T11:22:37.440Z,70.60
2018-06-02T11:25:12.169Z,70.50
2018-06-02T11:27:46.582Z,70.10
2018-06-02T11:30:21.608Z,72.70
2018-06-02T11:32:56.025Z,72.60
2018-06-02T11:35:30.537Z,73.70
2018-06-02T11:38:05.192Z,72.80
2018-06-02T11:40:39.576Z,71.80
2018-06-02T11:43:13.905Z,72.70
2018-06-02T11:45:48.186Z,75.70
2018-06-02T11:48:22.544Z,74.60
2018-06-02T11:50:57.305Z,74.20
2018-06-02T11:53:31.576Z,74.00
2018-06-02T11:56:06.117Z,72.60
2018-06-02T11:58:40.531Z,72.90
2018-06-02T12:01:14.824Z,72.60
2018-06-02T12:03:49.081Z,72.30
2018-06-02T12:06:23.720Z,71.90
2018-06-02T12:08:58.320Z,71.80
2018-06-02T12:11:32.608Z,71.30
2018-06-02T12:14:07.084Z,70.70
2018-06-02T12:16:41.369Z,69.80
2018-06-02T12:19:16.029Z,73.30
2018-06-02T12:21:50.300Z,71.70
2018-06-02T12:24:24.669Z,71.10
2018-06-02T12:26:59.320Z,70.50
2018-06-02T12:29:33.714Z,70.80
2018-06-02T12:32:08.216Z,70.70
2018-06-02T12:34:42.670Z,69.60
2018-06-02T12:37:17.049Z,71.10
2018-06-02T12:39:51.492Z,71.30
2018-06-02T12:42:26.103Z,70.10
2018-06-02T12:45:00.640Z,67.30
2018-06-02T12:47:35.068Z,67.70
2018-06-02T12:50:10.365Z,67.40
2018-06-02T12:52:44.647Z,67.20
2018-06-02T12:55:19.149Z,68.10
2018-06-02T12:57:54.488Z,68.30
2018-06-02T13:00:28.864Z,68.20
2018-06-02T13:03:03.528Z,68.30
2018-06-02T13:05:37.957Z,68.00
2018-06-02T13:08:12.452Z,68.20
2018-06-02T13:10:46.719Z,68.20
2018-06-02T13:13:21.392Z,69.20
2018-06-02T13:15:56.817Z,70.10
2018-06-02T13:18:31.284Z,70.30
2018-06-02T13:21:06.495Z,71.10
2018-06-02T13:23:41.248Z,71.10
2018-06-02T13:26:15.568Z,70.80
2018-06-02T13:28:49.973Z,71.30
2018-06-02T13:31:24.298Z,70.80
2018-06-02T13:33:58.827Z,70.40
2018-06-02T13:36:33.257Z,70.40
2018-06-02T13:39:07.696Z,69.40
2018-06-02T13:41:42.305Z,69.70
2018-06-02T13:44:16.705Z,71.30
2018-06-02T13:46:51.244Z,70.40
2018-06-02T13:49:25.772Z,68.70
2018-06-02T13:52:00.176Z,69.10
2018-06-02T13:54:34.436Z,68.90
2018-06-02T13:57:08.907Z,68.70
2018-06-02T13:59:43.346Z,69.30
2018-06-02T14:02:17.649Z,68.40
2018-06-02T14:04:51.966Z,65.00
2018-06-02T14:07:26.387Z,65.70
2018-06-02T14:10:00.777Z,67.60
2018-06-02T14:12:35.405Z,67.70
2018-06-02T14:15:09.757Z,67.30
2018-06-02T14:17:44.392Z,67.10
2018-06-02T14:20:18.919Z,67.70
2018-06-02T14:22:53.295Z,69.30
2018-06-02T14:25:28.425Z,68.50
2018-06-02T14:28:03.104Z,68.40
2018-06-02T14:30:37.737Z,67.00
2018-06-02T14:33:11.989Z,66.80
2018-06-02T14:35:47.052Z,65.60
2018-06-02T14:38:21.528Z,64.80
2018-06-02T14:40:55.930Z,65.10
2018-06-02T14:43:30.345Z,65.40
2018-06-02T14:46:04.964Z,65.50
2018-06-02T14:48:39.395Z,64.40
2018-06-02T14:51:13.700Z,67.10
2018-06-02T14:53:48.113Z,62.50
2018-06-02T14:56:22.600Z,62.50
2018-06-02T14:58:57.177Z,64.10
2018-06-02T15:01:31.465Z,62.30
2018-06-02T15:04:05.932Z,64.20
2018-06-02T15:06:40.449Z,66.30
2018-06-02T15:09:14.965Z,63.80
2018-06-02T15:11:49.392Z,64.30
2018-06-02T15:14:23.716Z,65.80
2018-06-02T15:16:58.020Z,62.80
2018-06-02T15:19:32.326Z,64.30
2018-06-02T15:22:06.656Z,61.60
2018-06-02T15:24:41.089Z,62.00
2018-06-02T15:27:15.468Z,61.20
2018-06-02T15:29:49.929Z,63.40
2018-06-02T15:32:24.260Z,63.30
2018-06-02T15:34:58.677Z,64.00
2018-06-02T15:37:33.088Z,63.20
2018-06-02T15:40:07.610Z,63.90
2018-06-02T15:42:42.022Z,63.00
2018-06-02T15:45:16.457Z,64.40
2018-06-02T15:47:50.860Z,64.70
2018-06-02T15:50:25.491Z,64.20
2018-06-02T15:52:59.809Z,63.40
2018-06-02T15:55:34.320Z,65.00
2018-06-02T15:58:09.352Z,64.60
2018-06-02T16:00:43.684Z,64.60
2018-06-02T16:03:18.300Z,65.50
2018-06-02T16:05:52.629Z,63.10
2018-06-02T16:08:27.026Z,62.90
2018-06-02T16:11:01.353Z,61.90
2018-06-02T16:13:35.664Z,61.70
2018-06-02T16:16:10.698Z,62.50
2018-06-02T16:18:45.744Z,62.20
2018-06-02T16:21:20.412Z,62.10
2018-06-02T16:23:54.692Z,62.60
2018-06-02T16:26:29.120Z,62.50
2018-06-02T16:29:03.452Z,62.10
2018-06-02T16:31:37.756Z,63.10
2018-06-02T16:34:12.180Z,62.20
2018-06-02T16:36:47.284Z,61.80
2018-06-02T16:39:36.600Z,61.80
2018-06-02T16:42:11.855Z,61.80
2018-06-02T16:44:46.338Z,61.50
2018-06-02T16:47:20.677Z,62.60
2018-06-02T16:49:54.948Z,60.10
2018-06-02T16:52:29.411Z,62.60
2018-06-02T16:55:04.025Z,60.60
2018-06-02T16:57:39.345Z,63.10
2018-06-02T17:00:13.900Z,63.10
2018-06-02T17:02:48.412Z,63.80
2018-06-02T17:05:22.834Z,64.20
2018-06-02T17:07:57.144Z,64.60
2018-06-02T17:10:31.469Z,63.80
2018-06-02T17:13:05.756Z,64.00
2018-06-02T17:15:40.109Z,66.70
2018-06-02T17:18:14.609Z,68.50
2018-06-02T17:20:49.010Z,67.30
2018-06-02T17:23:23.684Z,68.70
2018-06-02T17:25:58.080Z,66.60
2018-06-02T17:28:32.621Z,64.50
2018-06-02T17:31:07.163Z,65.30
2018-06-02T17:33:43.199Z,66.20
2018-06-02T17:36:17.624Z,66.00
2018-06-02T17:38:52.008Z,66.90
2018-06-02T17:41:26.340Z,66.80
2018-06-02T17:44:00.785Z,67.80
2018-06-02T17:46:35.196Z,66.10
2018-06-02T17:49:09.593Z,66.40
2018-06-02T17:51:43.928Z,66.90
2018-06-02T17:54:19.160Z,68.50
2018-06-02T17:56:53.503Z,68.50
2018-06-02T17:59:27.896Z,68.90
2018-06-02T18:02:02.447Z,69.30
2018-06-02T18:04:36.945Z,69.20
2018-06-02T18:07:11.230Z,69.80
2018-06-02T18:09:45.685Z,69.40
2018-06-02T18:12:20.125Z,68.30
2018-06-02T18:14:54.436Z,68.00
2018-06-02T18:17:28.716Z,68.40
2018-06-02T18:20:03.208Z,69.80
2018-06-02T18:22:37.726Z,70.00
2018-06-02T18:25:12.237Z,70.30
2018-06-02T18:27:46.654Z,71.00
2018-06-02T18:30:21.028Z,70.60
2018-06-02T18:32:55.309Z,70.80
2018-06-02T18:35:29.712Z,69.10
2018-06-02T18:38:04.081Z,68.60
2018-06-02T18:40:39.176Z,68.60
2018-06-02T18:43:13.693Z,68.50
2018-06-02T18:45:48.120Z,68.90
2018-06-02T18:48:22.541Z,70.00
2018-06-02T18:50:56.908Z,70.90
2018-06-02T18:53:31.466Z,71.50
2018-06-02T18:56:05.888Z,72.20
2018-06-02T18:58:41.005Z,72.70
2018-06-02T19:01:16.149Z,73.20
2018-06-02T19:03:50.495Z,73.10
2018-06-02T19:06:24.808Z,73.60
2018-06-02T19:09:00.764Z,73.90
2018-06-02T19:11:35.069Z,73.80
2018-06-02T19:14:09.669Z,75.00
2018-06-02T19:16:44.103Z,74.80
2018-06-02T19:19:18.656Z,75.00
2018-06-02T19:21:53.064Z,76.20
2018-06-02T19:24:27.444Z,76.00
2018-06-02T19:27:02.012Z,75.60
2018-06-02T19:29:36.304Z,76.50
2018-06-02T19:32:11.343Z,76.20
2018-06-02T19:34:46.480Z,77.40
2018-06-02T19:37:20.916Z,77.40
2018-06-02T19:39:55.219Z,77.70
2018-06-02T19:42:30.252Z,78.40
2018-06-02T19:45:04.673Z,78.40
2018-06-02T19:47:39.211Z,79.40
2018-06-02T19:50:13.721Z,79.60
2018-06-02T19:52:48.034Z,80.30
2018-06-02T19:55:22.425Z,80.40
2018-06-02T19:57:56.877Z,80.40
2018-06-02T20:00:31.748Z,80.10
2018-06-02T20:03:07.051Z,80.20
2018-06-02T20:05:41.488Z,80.20
2018-06-02T20:08:15.908Z,80.80
2018-06-02T20:10:50.316Z,80.60
2018-06-02T20:13:24.624Z,80.30
2018-06-02T20:15:58.984Z,80.00
2018-06-02T20:18:33.492Z,80.60
2018-06-02T20:21:07.793Z,81.20
2018-06-02T20:23:42.123Z,81.30
2018-06-02T20:26:16.621Z,82.00
2018-06-02T20:28:51.898Z,83.50
2018-06-02T20:31:26.297Z,83.40
2018-06-02T20:34:00.736Z,83.70
2018-06-02T20:36:35.241Z,83.10
2018-06-02T20:39:09.648Z,83.30
2018-06-02T20:41:44.080Z,83.70
2018-06-02T20:44:19.836Z,84.00
2018-06-02T20:46:54.150Z,84.10
2018-06-02T20:49:28.796Z,84.40
2018-06-02T20:52:03.271Z,84.60
2018-06-02T20:54:37.713Z,84.10
2018-06-02T20:57:12.132Z,83.80
2018-06-02T20:59:46.552Z,84.20
2018-06-02T21:02:20.876Z,85.10
2018-06-02T21:04:55.345Z,85.10
2018-06-02T21:07:29.712Z,85.90
2018-06-02T21:10:04.072Z,85.60
2018-06-02T21:12:38.443Z,86.60
2018-06-02T21:15:12.872Z,86.70
2018-06-02T21:17:47.427Z,86.70
2018-06-02T21:20:21.838Z,86.70
2018-06-02T21:22:56.269Z,87.30
2018-06-02T21:25:30.688Z,87.60
2018-06-02T21:28:05.108Z,88.90
2018-06-02T21:30:39.397Z,89.20
2018-06-02T21:33:13.844Z,88.50
2018-06-02T21:35:48.368Z,88.20
2018-06-02T21:38:22.685Z,87.80
2018-06-02T21:40:57.000Z,88.00
2018-06-02T21:43:31.312Z,88.00
2018-06-02T21:46:05.944Z,88.80
2018-06-02T21:48:40.352Z,89.10
2018-06-02T21:51:14.780Z,89.70
2018-06-02T21:53:49.201Z,89.00
2018-06-02T21:56:23.635Z,89.50
2018-06-02T21:58:59.463Z,90.10
2018-06-02T22:01:33.808Z,90.10
2018-06-02T22:04:08.147Z,90.30
2018-06-02T22:06:42.404Z,90.70
2018-06-02T22:09:17.468Z,90.40
2018-06-02T22:11:52.708Z,90.30
2018-06-02T22:14:27.040Z,90.30
2018-06-02T22:17:01.653Z,90.60
2018-06-02T22:19:36.163Z,90.30
2018-06-02T22:22:10.503Z,90.10
2018-06-02T22:24:44.895Z,90.30
2018-06-02T22:27:19.225Z,90.60
2018-06-02T22:29:53.661Z,90.50
2018-06-02T22:32:28.064Z,90.10
2018-06-02T22:35:02.503Z,90.60
2018-06-02T22:37:36.920Z,90.80
2018-06-02T22:40:11.340Z,91.00
2018-06-02T22:42:45.760Z,91.20
2018-06-02T22:45:20.204Z,91.20
2018-06-02T22:47:54.600Z,91.10
2018-06-02T22:50:30.532Z,90.70
2018-06-02T22:53:04.864Z,90.70
2018-06-02T22:55:40.042Z,91.00
2018-06-02T22:58:14.549Z,91.40
2018-06-02T23:00:49.207Z,91.20
2018-06-02T23:03:23.593Z,90.80
2018-06-02T23:05:57.909Z,90.40
2018-06-02T23:08:32.229Z,90.70
2018-06-02T23:11:06.611Z,91.00
2018-06-02T23:13:40.832Z,91.00
2018-06-02T23:16:15.180Z,91.00
2018-06-02T23:18:49.394Z,91.20
2018-06-02T23:21:23.621Z,91.50
2018-06-02T23:23:57.840Z,91.30
2018-06-02T23:26:32.217Z,91.60
2018-06-02T23:29:06.556Z,91.30
2018-06-02T23:31:40.875Z,91.60
2018-06-02T23:34:15.400Z,91.50
2018-06-02T23:36:49.597Z,91.50
2018-06-02T23:39:24.556Z,91.70
2018-06-02T23:41:58.981Z,91.70
2018-06-02T23:44:33.397Z,91.60
2018-06-02T23:47:07.469Z,91.70
2018-06-02T23:49:42.425Z,92.00
2018-06-02T23:52:17.363Z,91.60
2018-06-02T23:54:51.608Z,91.50
2018-06-02T23:57:26.020Z,91.40
